createdAt,value
2018-09-19T00:00:48.432Z,37.43
2018-09-19T00:03:18.102Z,38.53
2018-09-19T00:05:47.740Z,37.80
2018-09-19T00:08:17.400Z,38.07
2018-09-19T00:10:46.966Z,40.03
2018-09-19T00:13:16.500Z,37.73
2018-09-19T00:15:46.169Z,36.30
2018-09-19T00:18:15.796Z,38.50
2018-09-19T00:20:45.363Z,36.90
2018-09-19T00:23:14.983Z,35.77
2018-09-19T00:25:44.611Z,37.60
2018-09-19T00:28:14.335Z,37.30
2018-09-19T00:30:43.950Z,38.00
2018-09-19T00:33:13.503Z,39.13
2018-09-19T00:35:43.122Z,37.57
2018-09-19T00:38:12.694Z,37.17
2018-09-19T00:40:42.315Z,37.73
2018-09-19T00:43:11.976Z,38.10
2018-09-19T00:45:41.636Z,37.03
2018-09-19T00:48:11.234Z,35.80
2018-09-19T00:50:40.821Z,34.60
2018-09-19T00:53:10.418Z,36.20
2018-09-19T00:55:40.002Z,36.17
2018-09-19T00:58:09.593Z,39.23
2018-09-19T01:00:39.277Z,36.70
2018-09-19T01:03:08.896Z,37.40
2018-09-19T01:05:38.500Z,36.37
2018-09-19T01:08:08.192Z,35.10
2018-09-19T01:10:37.838Z,29.77
2018-09-19T01:13:07.434Z,25.83
2018-09-19T01:15:37.056Z,22.97
2018-09-19T01:18:06.631Z,22.70
2018-09-19T01:20:36.268Z,22.73
2018-09-19T01:23:05.944Z,22.23
2018-09-19T01:25:35.573Z,20.70
2018-09-19T01:28:05.292Z,19.30
2018-09-19T01:30:34.856Z,21.03
2018-09-19T01:33:04.445Z,21.60
2018-09-19T01:35:34.149Z,21.63
2018-09-19T01:38:03.885Z,21.83
2018-09-19T01:40:33.500Z,23.33
2018-09-19T01:43:03.161Z,24.83
2018-09-19T01:45:32.759Z,25.63
2018-09-19T01:48:02.372Z,24.77
2018-09-19T01:50:32.001Z,25.60
2018-09-19T01:53:01.549Z,27.40
2018-09-19T01:55:31.197Z,29.53
2018-09-19T01:58:00.859Z,29.50
2018-09-19T02:00:30.469Z,31.27
2018-09-19T02:03:00.143Z,33.10
2018-09-19T02:05:29.733Z,31.17
2018-09-19T02:07:59.355Z,30.80
2018-09-19T02:10:29.021Z,33.00
2018-09-19T02:12:58.604Z,34.43
2018-09-19T02:15:28.226Z,38.23
2018-09-19T02:17:58.009Z,41.10
2018-09-19T02:20:34.101Z,41.73
2018-09-19T02:23:03.831Z,44.80
2018-09-19T02:25:33.569Z,43.20
2018-09-19T02:28:03.640Z,43.60
2018-09-19T02:30:33.279Z,46.00
2018-09-19T02:33:02.923Z,47.10
2018-09-19T02:35:32.608Z,44.03
2018-09-19T02:38:02.247Z,43.23
2018-09-19T02:40:31.850Z,41.70
2018-09-19T02:43:01.464Z,42.47
2018-09-19T02:45:31.082Z,41.77
2018-09-19T02:48:00.734Z,43.60
2018-09-19T02:50:30.337Z,41.10
2018-09-19T02:52:59.858Z,43.37
2018-09-19T02:55:29.535Z,41.30
2018-09-19T02:57:59.253Z,41.40
2018-09-19T03:00:28.868Z,40.57
2018-09-19T03:02:58.466Z,40.07
2018-09-19T03:05:28.221Z,39.00
2018-09-19T03:07:57.788Z,36.90
2018-09-19T03:10:27.366Z,37.77
2018-09-19T03:12:56.931Z,40.23
2018-09-19T03:15:26.645Z,37.20
2018-09-19T03:17:56.255Z,37.53
2018-09-19T03:20:25.875Z,38.53
2018-09-19T03:22:55.596Z,38.23
2018-09-19T03:25:25.247Z,37.63
2018-09-19T03:27:54.798Z,38.60
2018-09-19T03:30:24.432Z,37.37
2018-09-19T03:32:54.148Z,37.83
2018-09-19T03:35:23.767Z,37.73
2018-09-19T03:37:53.396Z,36.57
2018-09-19T03:40:22.991Z,35.77
2018-09-19T03:42:52.614Z,35.67
2018-09-19T03:45:22.208Z,36.50
2018-09-19T03:47:52.103Z,36.00
2018-09-19T03:50:21.868Z,36.47
2018-09-19T03:52:51.551Z,36.10
2018-09-19T03:55:21.254Z,37.77
2018-09-19T03:57:51.003Z,37.80
2018-09-19T04:00:20.713Z,35.13
2018-09-19T04:02:51.275Z,35.90
2018-09-19T04:05:20.942Z,34.10
2018-09-19T04:07:59.775Z,34.27
2018-09-19T04:10:29.486Z,30.60
2018-09-19T04:12:59.447Z,32.03
2018-09-19T04:15:31.234Z,31.27
2018-09-19T04:18:00.823Z,30.37
2018-09-19T04:20:30.478Z,29.37
2018-09-19T04:23:00.140Z,32.57
2018-09-19T04:25:29.725Z,31.33
2018-09-19T04:27:59.324Z,31.23
2018-09-19T04:30:29.005Z,32.23
2018-09-19T04:32:58.601Z,32.50
2018-09-19T04:35:28.185Z,32.83
2018-09-19T04:37:57.806Z,32.27
2018-09-19T04:40:27.399Z,33.47
2018-09-19T04:42:57.100Z,32.63
2018-09-19T04:45:26.675Z,33.27
2018-09-19T04:47:56.316Z,33.57
2018-09-19T04:50:25.976Z,34.40
2018-09-19T04:52:55.537Z,35.83
2018-09-19T04:55:25.148Z,34.50
2018-09-19T04:57:54.742Z,34.60
2018-09-19T05:00:24.344Z,34.20
2018-09-19T05:02:53.948Z,35.30
2018-09-19T05:05:23.575Z,34.17
2018-09-19T05:07:53.233Z,34.77
2018-09-19T05:10:22.973Z,34.70
2018-09-19T05:12:52.596Z,35.53
2018-09-19T05:15:22.298Z,35.40
2018-09-19T05:17:51.918Z,34.33
2018-09-19T05:20:21.557Z,33.77
2018-09-19T05:22:51.390Z,32.77
2018-09-19T05:25:21.004Z,33.53
2018-09-19T05:27:50.614Z,33.47
2018-09-19T05:30:20.330Z,33.77
2018-09-19T05:32:49.925Z,31.60
2018-09-19T05:35:19.571Z,32.87
2018-09-19T05:37:49.163Z,30.73
2018-09-19T05:40:18.811Z,31.33
2018-09-19T05:42:48.460Z,31.70
2018-09-19T05:45:18.027Z,30.60
2018-09-19T05:47:47.588Z,30.10
2018-09-19T05:50:17.190Z,30.00
2018-09-19T05:52:46.845Z,32.90
2018-09-19T05:55:16.444Z,32.93
2018-09-19T05:57:46.031Z,34.57
2018-09-19T06:00:15.723Z,35.27
2018-09-19T06:02:45.375Z,34.20
2018-09-19T06:05:14.986Z,33.23
2018-09-19T06:07:44.638Z,33.77
2018-09-19T06:10:14.343Z,33.47
2018-09-19T06:12:44.017Z,33.67
2018-09-19T06:15:13.589Z,34.67
2018-09-19T06:17:43.314Z,37.37
2018-09-19T06:20:12.931Z,36.00
2018-09-19T06:22:42.518Z,36.63
2018-09-19T06:25:12.217Z,35.43
2018-09-19T06:27:41.828Z,34.53
2018-09-19T06:30:11.447Z,37.70
2018-09-19T06:32:41.098Z,34.20
2018-09-19T06:35:11.223Z,33.17
2018-09-19T06:37:40.827Z,34.03
2018-09-19T06:40:10.579Z,34.83
2018-09-19T06:42:40.203Z,32.43
2018-09-19T06:45:10.192Z,32.17
2018-09-19T06:47:39.877Z,37.43
2018-09-19T06:50:09.587Z,32.40
2018-09-19T06:52:47.764Z,42.27
2018-09-19T06:55:17.315Z,44.27
2018-09-19T06:57:46.953Z,48.93
2018-09-19T07:00:16.550Z,50.13
2018-09-19T07:02:46.174Z,50.27
2018-09-19T07:05:15.793Z,39.17
2018-09-19T07:07:45.394Z,34.33
2018-09-19T07:10:14.982Z,29.40
2018-09-19T07:12:44.602Z,30.95
2018-09-19T07:15:14.793Z,28.63
2018-09-19T07:17:44.307Z,27.63
2018-09-19T07:20:13.936Z,28.30
2018-09-19T07:22:43.630Z,28.12
2018-09-19T07:25:13.350Z,27.17
2018-09-19T07:27:42.988Z,28.60
2018-09-19T07:30:12.666Z,27.03
2018-09-19T07:32:42.361Z,30.13
2018-09-19T07:35:11.904Z,28.10
2018-09-19T07:37:41.557Z,28.90
2018-09-19T07:40:11.192Z,26.43
2018-09-19T07:42:40.832Z,27.93
2018-09-19T07:45:10.487Z,29.50
2018-09-19T07:47:40.154Z,29.37
2018-09-19T07:50:10.397Z,29.20
2018-09-19T07:52:39.974Z,29.07
2018-09-19T07:55:09.898Z,30.13
2018-09-19T07:57:39.542Z,27.27
2018-09-19T08:00:09.253Z,27.77
2018-09-19T08:02:39.222Z,29.53
2018-09-19T08:05:09.927Z,30.23
2018-09-19T08:07:41.724Z,27.43
2018-09-19T08:10:11.372Z,23.53
2018-09-19T08:12:41.908Z,24.63
2018-09-19T08:15:11.477Z,24.23
2018-09-19T08:17:41.172Z,24.50
2018-09-19T08:20:10.980Z,22.67
2018-09-19T08:22:40.693Z,22.57
2018-09-19T08:25:10.461Z,23.80
2018-09-19T08:27:40.085Z,24.07
2018-09-19T08:30:09.847Z,24.00
2018-09-19T08:32:43.413Z,26.40
2018-09-19T08:35:18.260Z,27.17
2018-09-19T08:37:48.509Z,22.10
2018-09-19T08:40:19.224Z,22.70
2018-09-19T08:42:48.873Z,23.90
2018-09-19T08:45:18.430Z,22.70
2018-09-19T08:47:49.154Z,19.27
2018-09-19T08:50:18.808Z,20.03
2018-09-19T08:52:50.621Z,19.90
2018-09-19T08:55:22.354Z,20.10
2018-09-19T08:57:52.000Z,15.60
2018-09-19T09:00:21.647Z,17.63
2018-09-19T09:02:51.412Z,17.13
2018-09-19T09:05:21.132Z,19.60
2018-09-19T09:07:50.748Z,18.73
2018-09-19T09:10:20.646Z,13.87
2018-09-19T09:12:50.319Z,17.43
2018-09-19T09:15:20.023Z,16.60
2018-09-19T09:17:49.686Z,18.60
2018-09-19T09:20:21.501Z,17.33
2018-09-19T09:22:51.248Z,18.27
2018-09-19T09:25:20.823Z,16.20
2018-09-19T09:27:50.429Z,15.73
2018-09-19T09:30:20.238Z,16.37
2018-09-19T09:32:49.852Z,14.67
2018-09-19T09:35:19.431Z,14.57
2018-09-19T09:37:49.097Z,16.53
2018-09-19T09:40:18.758Z,16.40
2018-09-19T09:42:48.415Z,14.00
2018-09-19T09:45:18.240Z,15.37
2018-09-19T09:47:47.882Z,14.57
2018-09-19T09:50:17.564Z,13.53
2018-09-19T09:52:47.112Z,13.90
2018-09-19T09:55:16.732Z,14.63
2018-09-19T09:57:46.570Z,13.97
2018-09-19T10:00:20.283Z,13.57
2018-09-19T10:02:49.984Z,13.67
2018-09-19T10:05:19.664Z,13.80
2018-09-19T10:07:49.835Z,12.97
2018-09-19T10:10:19.558Z,14.90
2018-09-19T10:12:49.260Z,14.77
2018-09-19T10:15:18.846Z,15.47
2018-09-19T10:17:48.688Z,15.27
2018-09-19T10:20:18.327Z,15.07
2018-09-19T10:22:47.982Z,13.65
2018-09-19T10:25:17.540Z,13.93
2018-09-19T10:27:47.111Z,13.32
2018-09-19T10:30:16.708Z,12.37
2018-09-19T10:32:46.321Z,12.43
2018-09-19T10:35:15.979Z,12.93
2018-09-19T10:37:45.509Z,12.07
2018-09-19T10:40:15.287Z,12.65
2018-09-19T10:42:45.280Z,12.47
2018-09-19T10:45:14.890Z,13.20
2018-09-19T10:47:44.579Z,11.80
2018-09-19T10:50:14.192Z,12.57
2018-09-19T10:52:43.815Z,12.43
2018-09-19T10:55:13.477Z,11.95
2018-09-19T10:57:43.169Z,11.33
2018-09-19T11:00:12.819Z,12.03
2018-09-19T11:02:43.611Z,10.78
2018-09-19T11:05:13.363Z,11.53
2018-09-19T11:07:42.969Z,11.83
2018-09-19T11:10:12.638Z,12.23
2018-09-19T11:12:42.232Z,12.23
2018-09-19T11:15:11.837Z,13.43
2018-09-19T11:17:41.559Z,12.78
2018-09-19T11:20:11.191Z,12.20
2018-09-19T11:22:40.801Z,11.95
2018-09-19T11:25:10.421Z,11.77
2018-09-19T11:27:40.068Z,11.55
2018-09-19T11:30:09.677Z,10.50
2018-09-19T11:32:39.317Z,10.68
2018-09-19T11:35:09.498Z,11.25
2018-09-19T11:37:39.137Z,13.00
2018-09-19T11:40:08.776Z,13.98
2018-09-19T11:42:38.544Z,12.47
2018-09-19T11:45:10.726Z,11.28
2018-09-19T11:47:40.402Z,13.28
2018-09-19T11:50:10.050Z,12.88
2018-09-19T11:52:39.882Z,12.58
2018-09-19T11:55:09.551Z,13.05
2018-09-19T11:57:39.211Z,15.10
2018-09-19T12:00:08.998Z,15.08
2018-09-19T12:02:38.726Z,14.98
2018-09-19T12:05:08.623Z,14.30
2018-09-19T12:07:38.243Z,14.40
2018-09-19T12:10:08.552Z,11.50
2018-09-19T12:12:38.228Z,12.18
2018-09-19T12:15:09.310Z,14.63
2018-09-19T12:17:39.580Z,13.57
2018-09-19T12:20:09.350Z,11.68
2018-09-19T12:22:38.952Z,10.90
2018-09-19T12:25:08.622Z,12.50
2018-09-19T12:27:38.306Z,13.73
2018-09-19T12:30:13.912Z,13.97
2018-09-19T12:32:44.662Z,14.20
2018-09-19T12:35:14.428Z,13.68
2018-09-19T12:37:45.251Z,12.43
2018-09-19T12:40:14.927Z,13.13
2018-09-19T12:42:45.118Z,12.70
2018-09-19T12:45:14.746Z,12.83
2018-09-19T12:47:44.350Z,12.88
2018-09-19T12:50:14.021Z,11.55
2018-09-19T12:52:43.725Z,11.70
2018-09-19T12:55:14.784Z,12.85
2018-09-19T12:57:44.588Z,11.97
2018-09-19T13:00:14.403Z,12.23
2018-09-19T13:02:48.000Z,12.10
2018-09-19T13:05:17.722Z,11.78
2018-09-19T13:07:48.381Z,11.85
2018-09-19T13:10:18.168Z,11.10
2018-09-19T13:12:49.878Z,10.23
2018-09-19T13:15:19.671Z,10.60
2018-09-19T13:17:49.425Z,10.68
2018-09-19T13:20:19.056Z,10.00
2018-09-19T13:22:48.751Z,10.88
2018-09-19T13:25:18.421Z,10.38
2018-09-19T13:27:48.213Z,13.10
2018-09-19T13:30:17.892Z,12.23
2018-09-19T13:32:49.632Z,12.70
2018-09-19T13:35:19.330Z,13.50
2018-09-19T13:37:49.025Z,10.30
2018-09-19T13:40:18.712Z,12.50
2018-09-19T13:42:52.671Z,11.90
2018-09-19T13:45:26.961Z,12.18
2018-09-19T13:47:57.601Z,12.40
2018-09-19T13:50:50.742Z,14.50
2018-09-19T13:53:24.620Z,13.35
2018-09-19T13:55:55.138Z,14.20
2018-09-19T13:58:26.770Z,13.50
2018-09-19T14:00:56.639Z,13.58
2018-09-19T14:03:26.354Z,14.53
2018-09-19T14:05:57.059Z,12.55
2018-09-19T14:08:27.678Z,12.75
2018-09-19T14:11:00.849Z,12.37
2018-09-19T14:13:35.381Z,10.32
2018-09-19T14:16:05.313Z,12.00
2018-09-19T14:18:34.958Z,10.95
2018-09-19T14:21:04.759Z,11.03
2018-09-19T14:23:39.810Z,12.15
2018-09-19T14:26:09.573Z,11.15
2018-09-19T14:28:39.261Z,12.57
2018-09-19T14:31:09.012Z,11.12
2018-09-19T14:33:38.754Z,11.35
2018-09-19T14:36:08.612Z,11.93
2018-09-19T14:38:38.859Z,11.25
2018-09-19T14:41:08.596Z,10.35
2018-09-19T14:43:39.205Z,12.30
2018-09-19T14:46:08.896Z,11.05
2018-09-19T14:48:44.403Z,11.57
2018-09-19T14:51:18.198Z,11.57
2018-09-19T14:53:48.022Z,10.72
2018-09-19T14:56:17.699Z,11.63
2018-09-19T14:58:51.420Z,11.57
2018-09-19T15:01:22.060Z,12.25
2018-09-19T15:03:51.823Z,11.20
2018-09-19T15:06:25.881Z,11.65
2018-09-19T15:08:55.620Z,11.75
2018-09-19T15:11:25.248Z,11.57
2018-09-19T15:13:56.125Z,11.85
2018-09-19T15:16:26.812Z,10.35
2018-09-19T15:18:56.558Z,16.48
2018-09-19T15:21:30.226Z,9.25
2018-09-19T15:23:59.935Z,10.00
2018-09-19T15:26:29.661Z,9.63
2018-09-19T15:28:59.401Z,12.37
2018-09-19T15:31:29.004Z,11.48
2018-09-19T15:34:01.866Z,11.45
2018-09-19T15:36:31.610Z,10.95
2018-09-19T15:39:01.199Z,11.10
2018-09-19T15:41:30.804Z,11.75
2018-09-19T15:44:00.421Z,11.08
2018-09-19T15:46:31.196Z,10.03
2018-09-19T15:49:00.809Z,11.05
2018-09-19T15:51:30.420Z,10.25
2018-09-19T15:54:00.045Z,11.43
2018-09-19T15:56:30.525Z,10.88
2018-09-19T15:59:00.099Z,11.55
2018-09-19T16:01:29.702Z,10.93
2018-09-19T16:03:59.417Z,11.12
2018-09-19T16:06:29.083Z,11.60
2018-09-19T16:09:00.108Z,11.68
2018-09-19T16:11:29.713Z,11.57
2018-09-19T16:13:59.318Z,12.10
2018-09-19T16:16:28.929Z,11.40
2018-09-19T16:18:58.600Z,12.18
2018-09-19T16:21:28.607Z,11.90
2018-09-19T16:23:58.239Z,11.63
2018-09-19T16:26:27.887Z,11.95
2018-09-19T16:28:57.476Z,12.47
2018-09-19T16:31:27.111Z,12.13
2018-09-19T16:33:57.111Z,11.12
2018-09-19T16:36:26.770Z,11.48
2018-09-19T16:38:56.436Z,12.05
2018-09-19T16:41:26.108Z,12.50
2018-09-19T16:43:55.713Z,11.60
2018-09-19T16:46:25.405Z,11.78
2018-09-19T16:48:55.007Z,12.20
2018-09-19T16:51:24.634Z,11.73
2018-09-19T16:53:54.261Z,12.90
2018-09-19T16:56:23.909Z,11.88
2018-09-19T16:58:53.470Z,11.85
2018-09-19T17:01:23.149Z,11.88
2018-09-19T17:03:52.779Z,12.00
2018-09-19T17:06:28.881Z,13.15
2018-09-19T17:08:58.549Z,13.53
2018-09-19T17:11:28.224Z,12.60
2018-09-19T17:13:57.820Z,12.20
2018-09-19T17:16:27.449Z,11.38
2018-09-19T17:18:57.097Z,13.20
2018-09-19T17:21:26.694Z,12.80
2018-09-19T17:23:56.286Z,12.80
2018-09-19T17:26:25.904Z,11.90
2018-09-19T17:28:55.641Z,11.93
2018-09-19T17:31:25.307Z,12.90
2018-09-19T17:33:54.878Z,14.53
2018-09-19T17:36:24.473Z,13.83
2018-09-19T17:38:54.057Z,13.33
2018-09-19T17:41:23.665Z,13.07
2018-09-19T17:43:53.318Z,13.25
2018-09-19T17:46:23.132Z,12.43
2018-09-19T17:48:52.772Z,13.17
2018-09-19T17:51:22.444Z,13.33
2018-09-19T17:53:52.013Z,13.80
2018-09-19T17:56:21.724Z,14.07
2018-09-19T17:58:51.409Z,16.07
2018-09-19T18:01:21.077Z,15.30
2018-09-19T18:03:50.696Z,15.43
2018-09-19T18:06:20.469Z,15.43
2018-09-19T18:08:50.109Z,16.33
2018-09-19T18:11:19.685Z,17.90
2018-09-19T18:13:49.300Z,23.97
2018-09-19T18:16:18.915Z,23.50
2018-09-19T18:18:48.538Z,21.80
2018-09-19T18:21:18.202Z,23.07
2018-09-19T18:23:47.829Z,22.30
2018-09-19T18:26:17.459Z,23.43
2018-09-19T18:28:47.089Z,22.70
2018-09-19T18:31:16.702Z,23.57
2018-09-19T18:33:46.294Z,25.73
2018-09-19T18:36:15.910Z,25.30
2018-09-19T18:38:45.564Z,25.80
2018-09-19T18:41:15.232Z,27.77
2018-09-19T18:43:44.845Z,26.33
2018-09-19T18:46:14.493Z,27.57
2018-09-19T18:48:44.137Z,26.53
2018-09-19T18:51:13.807Z,27.93
2018-09-19T18:53:43.504Z,30.03
2018-09-19T18:56:13.152Z,29.73
2018-09-19T18:58:42.791Z,29.43
2018-09-19T19:01:12.355Z,28.67
2018-09-19T19:03:42.053Z,26.30
2018-09-19T19:06:11.709Z,26.17
2018-09-19T19:08:41.286Z,28.07
2018-09-19T19:11:11.067Z,28.23
2018-09-19T19:13:40.752Z,25.93
2018-09-19T19:16:10.401Z,24.97
2018-09-19T19:18:40.041Z,25.13
2018-09-19T19:21:09.680Z,24.90
2018-09-19T19:23:39.369Z,23.67
2018-09-19T19:26:08.934Z,25.83
2018-09-19T19:28:38.522Z,25.63
2018-09-19T19:31:08.173Z,24.17
2018-09-19T19:33:37.850Z,25.03
2018-09-19T19:36:07.488Z,24.87
2018-09-19T19:38:38.009Z,24.70
2018-09-19T19:41:07.658Z,25.73
2018-09-19T19:43:37.461Z,26.37
2018-09-19T19:46:07.120Z,28.20
2018-09-19T19:48:36.747Z,26.40
2018-09-19T19:51:06.385Z,27.20
2018-09-19T19:53:36.041Z,27.93
2018-09-19T19:56:05.796Z,25.50
2018-09-19T19:58:35.454Z,26.87
2018-09-19T20:01:05.210Z,29.43
2018-09-19T20:03:34.857Z,30.07
2018-09-19T20:06:04.475Z,28.30
2018-09-19T20:08:34.279Z,29.07
2018-09-19T20:11:03.986Z,30.10
2018-09-19T20:13:33.644Z,27.90
2018-09-19T20:16:03.277Z,28.27
2018-09-19T20:18:32.874Z,28.10
2018-09-19T20:21:02.546Z,26.73
2018-09-19T20:23:32.174Z,24.17
2018-09-19T20:26:01.812Z,24.23
2018-09-19T20:28:31.723Z,23.40
2018-09-19T20:31:01.334Z,22.00
2018-09-19T20:33:30.993Z,21.67
2018-09-19T20:36:00.593Z,19.67
2018-09-19T20:38:30.555Z,19.03
2018-09-19T20:41:00.237Z,18.80
2018-09-19T20:43:29.836Z,16.97
2018-09-19T20:45:59.689Z,16.20
2018-09-19T20:48:29.287Z,15.03
2018-09-19T20:50:59.000Z,15.07
2018-09-19T20:53:28.664Z,15.73
2018-09-19T20:55:58.314Z,14.37
2018-09-19T20:58:27.889Z,13.77
2018-09-19T21:00:57.463Z,14.00
2018-09-19T21:03:27.098Z,14.53
2018-09-19T21:05:56.707Z,12.80
2018-09-19T21:08:26.292Z,13.40
2018-09-19T21:10:55.907Z,12.50
2018-09-19T21:13:25.531Z,12.83
2018-09-19T21:15:55.266Z,13.77
2018-09-19T21:18:24.903Z,13.37
2018-09-19T21:20:54.492Z,13.43
2018-09-19T21:23:24.201Z,13.23
2018-09-19T21:25:53.803Z,11.90
2018-09-19T21:28:23.401Z,12.87
2018-09-19T21:30:53.059Z,13.53
2018-09-19T21:33:22.705Z,14.13
2018-09-19T21:35:52.357Z,15.70
2018-09-19T21:38:22.664Z,16.87
2018-09-19T21:40:52.306Z,17.53
2018-09-19T21:43:21.891Z,17.60
2018-09-19T21:45:51.527Z,17.70
2018-09-19T21:48:21.689Z,18.20
2018-09-19T21:50:51.268Z,17.90
2018-09-19T21:53:20.843Z,20.67
2018-09-19T21:55:50.481Z,25.90
2018-09-19T21:58:20.097Z,26.33
2018-09-19T22:00:54.644Z,23.10
2018-09-19T22:03:24.298Z,33.20
2018-09-19T22:05:53.902Z,30.00
2018-09-19T22:08:23.546Z,26.60
2018-09-19T22:10:53.213Z,25.57
2018-09-19T22:13:22.809Z,23.83
2018-09-19T22:15:52.351Z,23.37
2018-09-19T22:18:22.096Z,22.77
2018-09-19T22:20:51.689Z,22.70
2018-09-19T22:23:21.229Z,24.97
2018-09-19T22:25:50.831Z,26.70
2018-09-19T22:28:20.372Z,25.73
2018-09-19T22:30:50.034Z,26.47
2018-09-19T22:33:19.717Z,25.97
2018-09-19T22:35:49.295Z,26.73
2018-09-19T22:38:18.942Z,28.70
2018-09-19T22:40:48.612Z,28.47
2018-09-19T22:43:18.248Z,26.93
2018-09-19T22:45:47.896Z,28.27
2018-09-19T22:48:17.572Z,27.17
2018-09-19T22:50:47.149Z,26.57
2018-09-19T22:53:16.810Z,26.50
2018-09-19T22:55:46.426Z,27.83
2018-09-19T22:58:16.025Z,25.57
2018-09-19T23:00:45.682Z,24.20
2018-09-19T23:03:15.301Z,23.37
2018-09-19T23:05:44.939Z,22.10
2018-09-19T23:08:14.605Z,22.90
2018-09-19T23:10:44.287Z,22.07
2018-09-19T23:13:13.872Z,21.10
2018-09-19T23:15:43.465Z,20.53
2018-09-19T23:18:13.073Z,20.30
2018-09-19T23:20:42.638Z,21.40
2018-09-19T23:23:12.308Z,22.00
2018-09-19T23:25:41.948Z,22.17
2018-09-19T23:28:11.619Z,21.53
2018-09-19T23:30:42.195Z,20.93
2018-09-19T23:33:11.773Z,19.97
2018-09-19T23:35:41.349Z,21.00
2018-09-19T23:38:10.927Z,21.70
2018-09-19T23:40:40.530Z,20.90
2018-09-19T23:43:10.150Z,19.47
2018-09-19T23:45:39.762Z,19.50
2018-09-19T23:48:09.353Z,19.47
2018-09-19T23:50:38.935Z,19.57
2018-09-19T23:53:08.572Z,19.23
2018-09-19T23:55:38.180Z,17.13
2018-09-19T23:58:07.714Z,19.07
